Time;durP1;ratioP1;P1;durP2;ratioP2;P2;SDS_P1;SDS_P2;PMS_P1;PMS_P2;Temp;Humidity;BMP_temperature;BMP_pressure;BME280_temperature;BME280_humidity;BME280_pressure;Samples;Min_cycle;Max_cycle;Signal;HPM_P1;HPM_P2
2022/04/13 00:01:03;;;;;;;14.90;7.28;;;;;;;5.02;51.90;95684.91;5104804;28;20034;-68
2022/04/13 00:03:28;;;;;;;13.13;7.18;;;;;;;4.95;51.95;95683.78;5105987;28;20448;-68
2022/04/13 00:05:55;;;;;;;10.25;6.30;;;;;;;4.77;50.57;95686.25;5104976;28;20513;-69
2022/04/13 00:08:20;;;;;;;12.55;7.00;;;;;;;4.63;51.63;95687.44;5104068;28;20255;-68
2022/04/13 00:10:46;;;;;;;9.57;6.18;;;;;;;4.47;52.21;95686.13;5103763;28;20081;-69
2022/04/13 00:13:11;;;;;;;12.77;6.32;;;;;;;4.40;51.61;95675.19;5105051;28;20092;-69
2022/04/13 00:15:39;;;;;;;14.27;6.50;;;;;;;4.37;52.63;95685.25;5105754;28;20027;-68
2022/04/13 00:18:08;;;;;;;9.93;5.97;;;;;;;4.26;52.61;95689.66;5104930;28;20102;-69
2022/04/13 00:20:37;;;;;;;9.98;5.95;;;;;;;4.15;53.27;95682.59;5104531;28;20034;-69
2022/04/13 00:23:02;;;;;;;9.85;5.60;;;;;;;4.11;53.08;95678.50;5104647;28;20057;-68
2022/04/13 00:25:28;;;;;;;8.55;5.47;;;;;;;4.07;53.20;95679.75;5103897;28;20488;-68
2022/04/13 00:27:54;;;;;;;9.07;5.45;;;;;;;4.07;53.56;95679.75;5105065;28;20027;-68
2022/04/13 00:30:19;;;;;;;14.95;5.70;;;;;;;4.05;53.53;95681.69;5103793;28;20027;-68
2022/04/13 00:32:45;;;;;;;10.30;5.30;;;;;;;4.02;53.98;95685.47;5105411;28;20062;-68
2022/04/13 00:35:10;;;;;;;9.27;5.55;;;;;;;3.98;53.56;95685.84;5105150;28;20028;-69
2022/04/13 00:37:37;;;;;;;12.75;5.38;;;;;;;3.95;53.63;95686.94;5105644;28;20028;-69
2022/04/13 00:40:02;;;;;;;9.30;5.55;;;;;;;3.94;54.25;95679.97;5104234;28;20295;-68
2022/04/13 00:42:29;;;;;;;8.43;5.05;;;;;;;3.88;55.00;95681.31;5105417;28;20094;-68
2022/04/13 00:44:54;;;;;;;8.38;5.35;;;;;;;3.90;54.37;95681.19;5104653;28;20035;-68
2022/04/13 00:47:19;;;;;;;9.07;5.60;;;;;;;3.96;54.46;95683.34;5103887;28;20088;-68
2022/04/13 00:49:45;;;;;;;8.65;6.07;;;;;;;3.98;54.96;95692.00;5086561;28;20028;-68
2022/04/13 00:52:11;;;;;;;7.75;5.30;;;;;;;3.94;55.09;95691.44;5103699;28;20375;-68
2022/04/13 00:54:36;;;;;;;8.02;4.72;;;;;;;3.91;54.87;95689.03;5086777;28;20027;-69
2022/04/13 00:57:09;;;;;;;7.60;5.28;;;;;;;3.96;55.13;95693.94;5086258;28;20042;-68
2022/04/13 00:59:36;;;;;;;7.55;5.70;;;;;;;4.03;54.01;95694.28;5108556;28;20069;-68
2022/04/13 01:02:01;;;;;;;10.27;5.70;;;;;;;3.97;54.21;95695.63;5108521;28;20509;-69
2022/04/13 01:04:28;;;;;;;12.07;5.70;;;;;;;3.85;55.21;95696.66;5109182;28;20077;-68
2022/04/13 01:06:53;;;;;;;10.18;5.30;;;;;;;3.87;54.46;95689.41;5109195;28;20318;-68
2022/04/13 01:09:19;;;;;;;8.73;5.13;;;;;;;3.87;54.73;95692.06;5108543;28;20464;-67
2022/04/13 01:11:44;;;;;;;12.25;5.18;;;;;;;3.83;54.52;95696.78;5109027;28;20521;-68
2022/04/13 01:14:10;;;;;;;12.18;5.63;;;;;;;3.85;54.22;95691.34;5108679;28;20027;-69
2022/04/13 01:16:37;;;;;;;11.32;6.40;;;;;;;3.87;54.50;95692.91;5109288;28;20023;-68
2022/04/13 01:19:03;;;;;;;9.90;6.18;;;;;;;3.80;55.31;95697.91;5108005;28;20431;-69
2022/04/13 01:21:44;;;;;;;11.30;5.78;;;;;;;3.87;54.91;95700.03;5107676;28;20116;-68
2022/04/13 01:24:10;;;;;;;10.18;6.60;;;;;;;3.90;54.85;95689.97;5108277;28;20035;-68
2022/04/13 01:26:35;;;;;;;8.20;5.70;;;;;;;3.86;54.39;95687.72;5108615;28;20023;-68
2022/04/13 01:29:01;;;;;;;8.50;5.93;;;;;;;3.88;54.67;95691.09;5108944;28;20025;-68
2022/04/13 01:31:26;;;;;;;8.68;5.80;;;;;;;3.86;55.13;95690.38;5108090;28;20020;-68
2022/04/13 01:33:52;;;;;;;11.02;6.18;;;;;;;3.85;55.02;95686.03;5090734;28;20042;-68
2022/04/13 01:36:19;;;;;;;11.88;6.18;;;;;;;3.83;54.95;95691.47;5107520;28;20024;-68
2022/04/13 01:38:44;;;;;;;10.73;6.38;;;;;;;3.79;55.23;95690.06;5108959;28;20465;-70
2022/04/13 01:41:10;;;;;;;11.35;8.48;;;;;;;3.77;55.07;95689.34;5107745;28;20521;-69
2022/04/13 01:43:35;;;;;;;11.98;6.75;;;;;;;3.79;55.70;95687.41;5107967;28;20039;-69
2022/04/13 01:46:00;;;;;;;11.23;6.70;;;;;;;3.73;55.80;95691.41;5108108;28;20024;-68
2022/04/13 01:48:26;;;;;;;9.77;5.85;;;;;;;3.78;55.20;95691.03;5108281;28;20019;-67
2022/04/13 01:50:52;;;;;;;10.90;5.85;;;;;;;3.82;54.73;95689.81;5108066;28;20023;-68
2022/04/13 01:53:17;;;;;;;9.38;6.05;;;;;;;3.86;55.25;95685.06;5108053;27;20027;-68
2022/04/13 01:55:43;;;;;;;11.18;5.75;;;;;;;3.83;54.76;95680.88;5108612;28;20027;-68
2022/04/13 01:58:08;;;;;;;7.70;5.25;;;;;;;3.87;54.55;95686.78;5107473;28;20586;-68
2022/04/13 02:00:34;;;;;;;12.75;6.07;;;;;;;3.89;54.19;95682.16;5108132;28;20485;-68
2022/04/13 02:02:59;;;;;;;10.23;6.13;;;;;;;3.89;54.54;95682.16;5107582;28;20027;-68
2022/04/13 02:05:25;;;;;;;11.90;5.85;;;;;;;3.93;54.50;95692.38;5107887;28;20032;-67
2022/04/13 02:07:51;;;;;;;9.60;6.20;;;;;;;3.93;54.33;95683.59;5108212;28;20527;-70
2022/04/13 02:10:17;;;;;;;10.82;6.35;;;;;;;3.91;54.83;95680.22;5106308;28;20028;-69
2022/04/13 02:12:44;;;;;;;11.02;6.00;;;;;;;3.92;54.47;95684.53;5106678;28;20089;-67
2022/04/13 02:15:10;;;;;;;12.50;6.78;;;;;;;3.91;55.05;95683.72;5107137;28;20875;-68
2022/04/13 02:17:36;;;;;;;11.35;7.00;;;;;;;3.82;55.11;95680.00;5107707;28;20023;-69
2022/04/13 02:20:01;;;;;;;12.73;7.00;;;;;;;3.82;54.88;95677.38;5105735;28;20020;-68
2022/04/13 02:22:27;;;;;;;13.90;7.80;;;;;;;3.80;55.30;95683.78;5106141;28;20028;-68
2022/04/13 02:24:52;;;;;;;20.35;8.93;;;;;;;3.78;54.58;95683.06;5106723;28;20039;-68
2022/04/13 02:27:18;;;;;;;14.77;7.35;;;;;;;3.72;54.17;95681.78;5107626;28;20092;-68
2022/04/13 02:29:46;;;;;;;18.23;8.43;;;;;;;3.70;54.85;95681.91;5107404;28;20028;-68
2022/04/13 02:32:12;;;;;;;13.85;7.57;;;;;;;3.69;55.24;95677.53;5107061;28;20041;-68
2022/04/13 02:34:37;;;;;;;13.95;6.78;;;;;;;3.77;55.18;95682.22;5107877;28;20486;-68
2022/04/13 02:37:03;;;;;;;13.98;6.78;;;;;;;3.74;55.11;95669.19;5087474;28;20465;-68
2022/04/13 02:39:28;;;;;;;13.57;8.45;;;;;;;3.75;54.83;95678.88;5107088;28;20048;-68
2022/04/13 02:41:54;;;;;;;12.80;7.50;;;;;;;3.77;54.66;95679.56;5106532;28;20040;-68
2022/04/13 02:44:19;;;;;;;14.75;7.97;;;;;;;3.74;55.10;95679.00;5107297;28;20065;-68
2022/04/13 02:46:45;;;;;;;11.82;7.03;;;;;;;3.67;55.50;95673.34;5106963;28;20024;-68
2022/04/13 02:49:11;;;;;;;19.17;7.30;;;;;;;3.57;54.76;95679.44;5106808;28;20054;-67
2022/04/13 02:51:37;;;;;;;12.27;6.28;;;;;;;3.45;55.56;95670.66;5106023;28;20030;-68
2022/04/13 02:54:02;;;;;;;11.07;6.22;;;;;;;3.40;55.88;95670.19;5106005;28;20023;-68
2022/04/13 02:56:28;;;;;;;8.75;5.82;;;;;;;3.45;55.68;95669.84;5107479;28;20020;-68
2022/04/13 02:58:53;;;;;;;13.27;6.70;;;;;;;3.45;55.72;95675.16;5106157;28;20027;-68
2022/04/13 03:01:18;;;;;;;14.35;6.47;;;;;;;3.57;55.57;95679.44;5107121;28;20024;-68
2022/04/13 03:03:44;;;;;;;10.05;6.50;;;;;;;3.52;56.34;95676.31;5106436;28;20027;-68
2022/04/13 03:06:09;;;;;;;12.57;6.45;;;;;;;3.53;55.60;95675.31;5104885;28;20475;-69
2022/04/13 03:08:35;;;;;;;9.75;6.28;;;;;;;3.49;55.08;95681.00;5106734;28;20481;-69
2022/04/13 03:11:01;;;;;;;14.05;6.07;;;;;;;3.44;55.84;95686.69;5105931;28;20028;-69
2022/04/13 03:13:26;;;;;;;10.32;6.18;;;;;;;3.34;55.70;95684.81;5107090;28;20031;-69
2022/04/13 03:15:52;;;;;;;11.23;6.28;;;;;;;3.26;55.66;95689.91;5105712;28;20023;-69
2022/04/13 03:18:17;;;;;;;11.60;6.50;;;;;;;3.15;55.62;95687.28;5106754;28;20035;-68
2022/04/13 03:20:42;;;;;;;13.05;6.40;;;;;;;3.04;55.82;95685.50;5105787;28;20019;-68
2022/04/13 03:23:08;;;;;;;11.82;6.57;;;;;;;2.88;56.26;95688.53;5106481;28;20386;-68
2022/04/13 03:25:33;;;;;;;13.82;6.30;;;;;;;2.82;56.66;95681.94;5106175;28;20027;-69
2022/04/13 03:27:59;;;;;;;14.13;6.28;;;;;;;2.75;56.60;95694.81;5105899;28;20039;-68
2022/04/13 03:30:24;;;;;;;12.13;6.25;;;;;;;2.74;56.62;95679.88;5105550;28;20031;-68
2022/04/13 03:32:52;;;;;;;11.73;5.97;;;;;;;2.67;57.05;95682.19;5106064;28;20470;-68
2022/04/13 03:35:18;;;;;;;11.52;6.15;;;;;;;2.64;57.39;95686.88;5104909;28;20467;-68
2022/04/13 03:37:43;;;;;;;10.65;6.03;;;;;;;2.58;57.75;95689.03;5105654;28;20092;-68
2022/04/13 03:40:10;;;;;;;18.80;15.00;;;;;;;2.51;57.92;95693.16;5105942;28;20484;-68
2022/04/13 03:42:36;;;;;;;10.15;6.55;;;;;;;2.51;58.80;95692.31;5105593;28;20061;-69
2022/04/13 03:45:04;;;;;;;12.00;6.75;;;;;;;2.52;58.12;95700.13;5105648;28;20020;-68
2022/04/13 03:47:30;;;;;;;10.32;7.75;;;;;;;2.49;58.61;95707.47;5106247;28;20050;-68
2022/04/13 03:49:55;;;;;;;11.82;7.90;;;;;;;2.53;58.51;95707.09;5105501;28;20485;-68
2022/04/13 03:52:22;;;;;;;12.60;8.23;;;;;;;2.53;58.55;95715.03;5106040;28;20478;-68
2022/04/13 03:54:47;;;;;;;11.95;6.78;;;;;;;2.61;58.11;95708.31;5105048;28;20119;-69
2022/04/13 03:57:12;;;;;;;12.93;9.55;;;;;;;2.58;57.78;95710.22;5104377;28;20035;-66
2022/04/13 03:59:38;;;;;;;10.18;9.18;;;;;;;2.57;57.94;95710.34;5105520;28;20028;-68
2022/04/13 04:02:03;;;;;;;13.18;8.63;;;;;;;2.54;58.29;95718.53;5105335;28;20031;-68
2022/04/13 04:04:29;;;;;;;12.65;8.30;;;;;;;2.53;58.62;95722.97;5105604;28;20034;-68
2022/04/13 04:06:54;;;;;;;11.13;7.80;;;;;;;2.53;57.87;95720.34;5105463;28;20023;-68
2022/04/13 04:09:20;;;;;;;14.55;7.68;;;;;;;2.58;57.66;95722.63;5106323;28;20035;-69
2022/04/13 04:11:45;;;;;;;13.70;8.48;;;;;;;2.51;57.82;95734.66;5104746;28;20477;-69
2022/04/13 04:14:11;;;;;;;10.18;7.78;;;;;;;2.47;58.20;95729.59;5105646;28;20547;-69
2022/04/13 04:16:36;;;;;;;9.82;8.70;;;;;;;2.40;58.76;95741.63;5104476;28;20544;-69
2022/04/13 04:19:01;;;;;;;9.82;8.77;;;;;;;2.45;59.05;95734.16;5087569;28;20039;-69
2022/04/13 04:21:27;;;;;;;12.10;9.43;;;;;;;2.45;59.37;95739.47;5104818;28;20031;-71
2022/04/13 04:23:52;;;;;;;18.00;16.45;;;;;;;2.44;58.52;95735.16;5105394;28;20034;-68
2022/04/13 04:26:18;;;;;;;16.67;10.85;;;;;;;2.51;58.51;95740.81;5105057;28;20547;-68
2022/04/13 04:28:43;;;;;;;16.05;14.02;;;;;;;2.65;57.94;95736.22;5105007;28;20089;-69
2022/04/13 04:31:08;;;;;;;23.98;20.10;;;;;;;2.81;57.85;95735.88;5105905;28;20038;-68
2022/04/13 04:33:34;;;;;;;15.57;12.48;;;;;;;3.04;57.37;95743.81;5103699;28;20028;-71
2022/04/13 04:35:59;;;;;;;22.70;20.27;;;;;;;3.25;56.53;95745.69;5105632;28;20058;-70
2022/04/13 04:38:27;;;;;;;16.25;14.25;;;;;;;3.48;55.20;95750.94;5104519;28;20028;-70
2022/04/13 04:40:53;;;;;;;12.93;11.43;;;;;;;3.74;54.24;95758.59;5104998;28;20079;-68
2022/04/13 04:43:18;;;;;;;16.33;9.05;;;;;;;3.97;53.55;95759.31;5104766;28;20522;-68
2022/04/13 04:45:44;;;;;;;12.18;8.35;;;;;;;4.14;52.48;95763.25;5105150;28;20119;-67
2022/04/13 04:48:09;;;;;;;12.07;7.20;;;;;;;4.31;52.11;95766.25;5105557;28;20032;-68
2022/04/13 04:50:35;;;;;;;11.45;7.05;;;;;;;4.45;52.00;95762.44;5104420;28;20236;-68
2022/04/13 04:53:00;;;;;;;12.73;7.32;;;;;;;4.65;50.98;95773.16;5105530;28;20463;-68
2022/04/13 04:55:25;;;;;;;12.73;7.10;;;;;;;4.78;50.85;95768.50;5104348;28;20096;-69
2022/04/13 04:57:51;;;;;;;11.45;6.63;;;;;;;5.01;50.60;95772.78;5103961;28;20543;-68
2022/04/13 05:00:18;;;;;;;9.45;6.47;;;;;;;5.16;49.49;95779.41;5104763;28;20473;-68
2022/04/13 05:02:46;;;;;;;11.88;6.72;;;;;;;5.35;49.65;95776.97;5105150;28;20027;-68
2022/04/13 05:05:13;;;;;;;15.68;6.63;;;;;;;5.61;49.02;95776.47;5105443;28;20046;-68
2022/04/13 05:23:49;;;;;;;17.65;8.50;;;;;;;7.48;44.50;95785.94;5083074;27;1265970;-68
2022/04/13 05:26:18;;;;;;;14.40;7.88;;;;;;;7.49;44.69;95792.97;5104394;28;20517;-69
2022/04/13 05:28:44;;;;;;;19.08;8.48;;;;;;;7.62;44.64;95797.13;5104571;28;20073;-68
2022/04/13 05:31:09;;;;;;;14.48;8.48;;;;;;;7.77;44.16;95792.94;5086584;28;20020;-69
2022/04/13 05:33:34;;;;;;;14.38;7.90;;;;;;;7.95;43.60;95794.78;5104116;28;20032;-68
2022/04/13 05:36:00;;;;;;;14.93;7.95;;;;;;;8.10;42.97;95788.91;5105032;28;20330;-68
2022/04/13 05:38:25;;;;;;;10.77;7.10;;;;;;;8.09;43.13;95795.28;5103785;28;20405;-68
2022/04/13 05:40:51;;;;;;;15.30;7.72;;;;;;;8.22;42.86;95793.03;5105205;28;20019;-69
2022/04/13 05:43:16;;;;;;;9.88;6.75;;;;;;;8.39;42.67;95798.53;5103577;28;20035;-69
2022/04/13 05:45:42;;;;;;;12.50;6.60;;;;;;;8.51;42.26;95794.63;5104765;28;20032;-69
2022/04/13 05:48:07;;;;;;;8.48;6.03;;;;;;;8.69;42.27;95799.13;5104397;28;20028;-68
2022/04/13 05:50:32;;;;;;;13.25;6.75;;;;;;;8.60;43.72;95792.88;5104142;28;20016;-69
2022/04/13 05:52:58;;;;;;;11.02;7.40;;;;;;;8.68;44.54;95794.78;5105062;28;20031;-68
2022/04/13 05:55:23;;;;;;;10.45;6.65;;;;;;;8.98;43.16;95799.84;5103123;28;20028;-68
2022/04/13 05:57:49;;;;;;;10.85;7.60;;;;;;;9.21;43.62;95799.25;5104609;28;20020;-69
2022/04/13 06:00:14;;;;;;;11.95;7.50;;;;;;;9.22;43.79;95796.44;5084605;28;20039;-69
2022/04/13 06:02:40;;;;;;;11.75;7.25;;;;;;;9.48;42.97;95794.72;5104841;28;20535;-69
2022/04/13 06:05:06;;;;;;;19.88;8.15;;;;;;;9.69;43.31;95798.81;5103592;28;20023;-69
2022/04/13 06:07:32;;;;;;;13.45;8.02;;;;;;;9.89;42.70;95797.53;5085664;28;20032;-68
2022/04/13 06:10:02;;;;;;;12.73;8.75;;;;;;;9.99;42.93;95797.41;5086145;28;20039;-69
2022/04/13 06:12:28;;;;;;;12.25;7.20;;;;;;;9.67;42.16;95801.66;5103094;28;20039;-68
2022/04/13 06:15:03;;;;;;;14.02;8.25;;;;;;;9.67;41.19;95807.03;5104585;28;20024;-68
2022/04/13 06:17:28;;;;;;;13.98;7.45;;;;;;;9.94;42.34;95798.88;5084449;28;20081;-69
2022/04/13 06:19:53;;;;;;;15.05;7.25;;;;;;;10.01;42.08;95808.78;5104710;28;20028;-69
2022/04/13 06:22:19;;;;;;;11.65;7.07;;;;;;;10.11;41.05;95807.78;5095651;28;20399;-69
2022/04/13 06:24:44;;;;;;;13.85;7.45;;;;;;;10.27;41.00;95810.50;5069908;28;20486;-69
2022/04/13 06:27:10;;;;;;;10.75;6.47;;;;;;;10.52;40.88;95807.03;5052408;28;20058;-70
2022/04/13 06:29:35;;;;;;;12.98;7.18;;;;;;;10.78;42.05;95802.47;5068097;28;20481;-69
2022/04/13 06:32:01;;;;;;;9.25;6.60;;;;;;;10.84;39.43;95801.81;5035794;28;20032;-69
2022/04/13 06:34:26;;;;;;;15.25;7.40;;;;;;;10.83;39.39;95808.19;5068414;28;20028;-69
2022/04/13 06:36:52;;;;;;;16.20;11.13;;;;;;;10.77;39.32;95804.31;5052316;28;20139;-68
2022/04/13 06:39:17;;;;;;;9.75;7.18;;;;;;;11.06;39.47;95802.13;5068589;28;20505;-69
2022/04/13 06:41:42;;;;;;;13.13;6.68;;;;;;;11.27;38.43;95808.78;5070162;28;20039;-69
2022/04/13 06:44:08;;;;;;;13.10;7.75;;;;;;;11.40;38.61;95797.50;5069524;28;20027;-68
2022/04/13 06:46:36;;;;;;;10.98;7.35;;;;;;;11.54;38.02;95802.16;5051072;28;20039;-69
2022/04/13 06:49:02;;;;;;;13.13;8.13;;;;;;;11.57;38.23;95807.16;5070024;28;20490;-68
2022/04/13 06:51:27;;;;;;;11.88;8.60;;;;;;;11.76;38.17;95807.75;5050370;28;20020;-68
2022/04/13 06:53:53;;;;;;;14.40;9.70;;;;;;;11.93;37.79;95803.13;5069997;28;20047;-68
2022/04/13 06:56:18;;;;;;;16.02;8.82;;;;;;;11.65;38.29;95795.53;5068064;28;20029;-69
2022/04/13 06:58:45;;;;;;;16.60;9.75;;;;;;;11.59;37.42;95797.06;5070103;28;20462;-68
2022/04/13 07:01:11;;;;;;;12.80;9.23;;;;;;;11.69;38.17;95798.69;5068717;28;20406;-69
2022/04/13 07:03:36;;;;;;;17.60;11.15;;;;;;;11.72;38.00;95801.06;5069022;28;20032;-68
2022/04/13 07:06:02;;;;;;;13.93;9.35;;;;;;;11.93;37.75;95799.63;5069588;28;20040;-68
2022/04/13 07:08:27;;;;;;;15.38;9.70;;;;;;;12.06;37.20;95797.16;5068161;28;20032;-68
2022/04/13 07:10:53;;;;;;;20.13;11.68;;;;;;;12.34;38.21;95801.22;5069735;28;20017;-69
2022/04/13 07:13:19;;;;;;;22.65;10.70;;;;;;;12.49;37.48;95794.03;5068203;28;20085;-68
2022/04/13 07:15:44;;;;;;;14.25;9.57;;;;;;;12.64;37.15;95797.81;5069288;28;20100;-68
2022/04/13 07:18:10;;;;;;;16.55;8.82;;;;;;;12.79;35.72;95795.16;5068307;28;20040;-68
2022/04/13 07:20:35;;;;;;;19.50;9.20;;;;;;;12.76;35.64;95798.22;5069476;28;20036;-67
2022/04/13 07:23:01;;;;;;;17.40;10.73;;;;;;;12.41;36.96;95804.88;5068524;28;20049;-68
2022/04/13 07:25:26;;;;;;;16.45;9.25;;;;;;;12.65;36.21;95800.31;5068783;28;20414;-68
2022/04/13 07:27:51;;;;;;;13.13;8.25;;;;;;;12.82;35.99;95802.84;5069354;28;20535;-69
2022/04/13 07:30:17;;;;;;;16.98;9.95;;;;;;;12.76;35.44;95800.91;5068116;28;20052;-68
2022/04/13 07:32:44;;;;;;;13.68;8.88;;;;;;;12.59;34.87;95804.56;5069084;28;20028;-69
2022/04/13 07:35:09;;;;;;;14.05;7.88;;;;;;;12.83;34.87;95796.47;5066715;28;20024;-69
2022/04/13 07:37:35;;;;;;;10.35;7.57;;;;;;;12.95;34.60;95791.47;5069006;28;20031;-68
2022/04/13 07:40:00;;;;;;;10.02;7.00;;;;;;;13.19;33.86;95794.94;5068187;28;20024;-69
2022/04/13 07:42:27;;;;;;;10.70;7.28;;;;;;;13.32;33.29;95794.28;5051092;28;20028;-69
2022/04/13 07:44:52;;;;;;;9.10;6.90;;;;;;;13.43;33.60;95793.81;5068592;28;20028;-69
2022/04/13 07:47:22;;;;;;;10.82;8.27;;;;;;;13.37;33.61;95797.28;5068019;28;20036;-69
2022/04/13 07:49:48;;;;;;;9.13;7.82;;;;;;;13.45;35.52;95796.34;5068659;28;20052;-68
2022/04/13 07:52:14;;;;;;;13.40;8.20;;;;;;;13.33;35.06;95793.28;5067532;28;20024;-68
2022/04/13 07:54:39;;;;;;;11.45;8.68;;;;;;;13.48;34.18;95795.97;5068753;28;20023;-68
2022/04/13 07:57:05;;;;;;;10.38;8.23;;;;;;;13.59;33.14;95794.69;5067633;28;20023;-69
2022/04/13 07:59:31;;;;;;;12.43;8.60;;;;;;;13.68;33.57;95787.34;5068874;28;20032;-70
2022/04/13 08:01:56;;;;;;;9.27;8.27;;;;;;;13.73;32.46;95784.94;5067691;28;20037;-69
2022/04/13 08:04:22;;;;;;;12.27;8.80;;;;;;;13.80;32.34;95791.22;5067886;28;20024;-67
2022/04/13 08:06:47;;;;;;;10.93;8.38;;;;;;;13.85;31.78;95787.97;5068343;28;20040;-68
2022/04/13 08:09:12;;;;;;;10.73;8.15;;;;;;;13.95;31.65;95788.50;5067257;28;20430;-69
2022/04/13 08:11:38;;;;;;;15.73;8.20;;;;;;;14.03;31.95;95795.66;5068597;28;20032;-69
2022/04/13 08:14:03;;;;;;;18.63;17.13;;;;;;;14.11;31.72;95791.16;5066946;28;20051;-69
2022/04/13 08:16:29;;;;;;;11.00;10.07;;;;;;;14.23;31.53;95794.19;5068440;28;20055;-69
2022/04/13 08:18:54;;;;;;;15.10;12.10;;;;;;;14.35;32.92;95792.66;5066994;28;20017;-68
2022/04/13 08:21:19;;;;;;;11.95;10.95;;;;;;;14.25;33.59;95792.16;5068024;28;20090;-68
2022/04/13 08:23:45;;;;;;;15.05;13.80;;;;;;;14.30;31.63;95793.22;5067573;28;20074;-69
2022/04/13 08:26:10;;;;;;;18.83;17.45;;;;;;;14.04;31.50;95786.50;5067318;28;20094;-69
2022/04/13 08:28:36;;;;;;;15.10;13.70;;;;;;;13.88;31.22;95794.84;5050569;28;20032;-68
2022/04/13 08:31:04;;;;;;;14.60;13.25;;;;;;;14.05;31.04;95796.28;5066685;28;20475;-69
2022/04/13 08:33:32;;;;;;;15.57;13.25;;;;;;;14.24;31.08;95795.84;5068129;28;20573;-69
2022/04/13 08:35:58;;;;;;;29.58;27.83;;;;;;;14.39;29.53;95793.09;5066470;28;20040;-69
2022/04/13 08:38:23;;;;;;;21.52;20.10;;;;;;;14.46;29.38;95794.03;5068112;28;20021;-67
2022/04/13 08:41:01;;;;;;;26.33;24.48;;;;;;;14.45;29.55;95789.63;5067229;28;20028;-69
2022/04/13 08:43:49;;;;;;;17.90;16.48;;;;;;;14.49;28.88;95785.53;5067081;28;20032;-69
2022/04/13 08:46:19;;;;;;;15.68;14.38;;;;;;;14.51;29.09;95782.66;5049792;28;20063;-69
2022/04/13 08:48:45;;;;;;;16.52;15.40;;;;;;;14.54;27.95;95776.88;5032449;28;20036;-69
2022/04/13 08:51:12;;;;;;;16.58;15.43;;;;;;;14.62;27.57;95776.69;5067902;28;20031;-69
2022/04/13 08:53:38;;;;;;;18.73;17.75;;;;;;;14.76;24.24;95771.44;5032513;28;20036;-69
2022/04/13 08:56:04;;;;;;;13.52;12.68;;;;;;;14.85;23.67;95769.47;5032999;28;20020;-69
2022/04/13 08:58:38;;;;;;;19.13;17.63;;;;;;;14.88;26.17;95764.50;5033378;28;20028;-68
2022/04/13 09:01:08;;;;;;;15.25;14.20;;;;;;;14.88;27.23;95774.47;5048350;28;20043;-69
2022/04/13 09:03:52;;;;;;;10.77;9.98;;;;;;;14.81;25.98;95769.03;5049954;28;20486;-68
2022/04/13 09:06:19;;;;;;;18.85;17.60;;;;;;;14.79;25.87;95763.81;5048385;28;20086;-67
2022/04/13 09:08:49;;;;;;;11.25;10.40;;;;;;;14.87;26.42;95756.59;5067636;28;20460;-68
2022/04/13 09:11:15;;;;;;;15.07;14.07;;;;;;;15.06;27.50;95753.19;5067057;28;20056;-69
2022/04/13 09:13:40;;;;;;;10.85;10.10;;;;;;;15.10;25.54;95750.09;5048857;28;20035;-69
2022/04/13 09:16:05;;;;;;;12.35;11.15;;;;;;;15.07;26.01;95752.16;5067506;28;20025;-69
2022/04/13 09:18:31;;;;;;;14.23;13.20;;;;;;;15.04;24.96;95751.75;5066477;28;20036;-69
2022/04/13 09:20:56;;;;;;;12.65;11.55;;;;;;;15.07;25.74;95751.34;5049854;28;20070;-68
2022/04/13 09:23:22;;;;;;;11.48;10.60;;;;;;;15.12;26.75;95748.84;5065680;28;20530;-68
2022/04/13 09:25:48;;;;;;;14.48;13.35;;;;;;;15.10;25.72;95747.41;5049601;28;20032;-68
2022/04/13 09:28:14;;;;;;;15.80;14.77;;;;;;;15.20;27.49;95737.09;5066351;28;20025;-69
2022/04/13 09:30:39;;;;;;;15.85;14.75;;;;;;;15.26;28.20;95747.09;5049579;28;20028;-69
2022/04/13 09:33:05;;;;;;;14.52;13.30;;;;;;;15.29;26.64;95737.75;5067201;28;20032;-69
2022/04/13 09:35:31;;;;;;;17.08;15.15;;;;;;;15.34;26.20;95735.28;5066407;28;20016;-68
2022/04/13 09:38:00;;;;;;;16.70;15.20;;;;;;;15.06;28.17;95739.69;5067613;28;20024;-68
2022/04/13 09:40:35;;;;;;;18.45;17.15;;;;;;;15.06;26.48;95726.19;5047959;28;20044;-69
2022/04/13 09:43:18;;;;;;;19.08;17.65;;;;;;;14.88;28.64;95731.28;5067663;28;20078;-69
2022/04/13 09:45:47;;;;;;;13.80;12.70;;;;;;;14.88;26.80;95734.78;5066938;28;20036;-69
2022/04/13 09:48:17;;;;;;;15.93;14.60;;;;;;;14.89;27.24;95727.53;5066471;28;20049;-68
2022/04/13 09:50:44;;;;;;;19.23;17.73;;;;;;;14.85;26.49;95727.09;5067474;28;20028;-68
2022/04/13 09:53:10;;;;;;;25.33;23.52;;;;;;;14.80;26.79;95724.13;5047569;28;20502;-68
2022/04/13 09:55:40;;;;;;;15.65;14.70;;;;;;;14.82;26.89;95719.38;5067298;28;20036;-70
2022/04/13 09:58:07;;;;;;;13.73;12.82;;;;;;;14.87;29.27;95718.78;5066475;28;20028;-69
2022/04/13 10:00:34;;;;;;;21.08;19.92;;;;;;;14.90;27.54;95713.81;5070897;28;20744;-68
2022/04/13 10:03:16;;;;;;;16.60;15.50;;;;;;;15.04;28.00;95709.34;5070227;28;20031;-70
2022/04/13 10:05:43;;;;;;;17.15;15.68;;;;;;;15.06;27.58;95704.59;5069840;28;20029;-69
2022/04/13 10:08:09;;;;;;;14.38;13.38;;;;;;;15.18;28.54;95704.88;5070863;28;20033;-69
2022/04/13 10:10:35;;;;;;;18.23;17.15;;;;;;;15.24;28.02;95699.69;5069466;28;20017;-68
2022/04/13 10:13:01;;;;;;;18.02;17.00;;;;;;;15.31;27.79;95697.84;5070943;28;20035;-69
2022/04/13 10:15:26;;;;;;;22.17;20.88;;;;;;;15.35;27.96;95699.13;5069212;28;20078;-69
2022/04/13 10:17:58;;;;;;;16.05;14.98;;;;;;;15.50;28.64;95701.69;5071033;28;20109;-68
2022/04/13 10:20:28;;;;;;;43.35;41.08;;;;;;;15.51;26.76;95700.63;5069917;28;20123;-69
2022/04/13 10:23:01;;;;;;;19.20;18.02;;;;;;;15.43;27.73;95700.81;5051096;28;20473;-68
2022/04/13 10:25:29;;;;;;;58.13;55.03;;;;;;;15.40;27.96;95693.09;5070671;28;20060;-69
2022/04/13 10:27:58;;;;;;;18.08;16.98;;;;;;;15.43;27.48;95695.41;5069077;28;20444;-69
2022/04/13 10:30:28;;;;;;;20.30;19.10;;;;;;;15.41;28.33;95686.69;5070264;28;20048;-70
2022/04/13 10:33:01;;;;;;;21.40;20.25;;;;;;;15.45;27.57;95685.22;5069205;28;20023;-69
2022/04/13 10:35:28;;;;;;;20.50;19.33;;;;;;;15.44;29.62;95680.88;5051823;28;20025;-69
2022/04/13 10:37:55;;;;;;;18.50;17.50;;;;;;;15.48;28.79;95681.28;5070166;28;20029;-68
2022/04/13 10:40:21;;;;;;;19.90;18.70;;;;;;;15.59;27.89;95679.88;5069129;28;20031;-68
2022/04/13 10:42:48;;;;;;;22.17;20.67;;;;;;;15.53;27.81;95676.09;5052486;28;20036;-69
2022/04/13 10:45:14;;;;;;;19.48;18.35;;;;;;;15.58;29.19;95676.34;5050975;28;20028;-69
2022/04/13 10:47:57;;;;;;;23.63;22.25;;;;;;;15.65;29.42;95677.19;5069897;28;20032;-68
2022/04/13 10:50:45;;;;;;;;;;;;;;;15.67;27.16;95675.13;5051792;28;20523;-69
2022/04/13 10:53:23;;;;;;;12.35;11.45;;;;;;;15.61;27.35;95670.53;5030857;28;19912;-69
2022/04/13 10:56:18;;;;;;;17.95;16.77;;;;;;;15.68;28.66;95662.44;5070082;28;20055;-68
2022/04/13 10:58:58;;;;;;;25.15;23.65;;;;;;;15.78;27.67;95664.75;5029853;28;20040;-69
2022/04/13 11:01:24;;;;;;;28.58;26.88;;;;;;;15.77;26.81;95668.47;5069814;28;20052;-69
2022/04/13 11:03:49;;;;;;;23.25;21.98;;;;;;;15.84;27.58;95661.22;5035055;28;20047;-69
2022/04/13 11:06:15;;;;;;;23.00;21.63;;;;;;;15.90;26.81;95663.13;5068759;28;20871;-68
2022/04/13 11:08:53;;;;;;;27.42;25.67;;;;;;;15.91;26.69;95653.94;5069606;28;20107;-69
2022/04/13 11:11:21;;;;;;;23.85;22.38;;;;;;;16.04;26.71;95655.06;5050919;28;20115;-69
2022/04/13 11:13:50;;;;;;;30.35;28.65;;;;;;;16.03;25.55;95648.81;5051642;28;20497;-69
2022/04/13 11:16:17;;;;;;;26.67;25.27;;;;;;;15.96;25.86;95647.91;5068770;28;20119;-68
2022/04/13 11:18:43;;;;;;;25.45;24.05;;;;;;;15.94;26.18;95650.84;5069077;28;20016;-68
2022/04/13 11:21:09;;;;;;;29.60;28.00;;;;;;;16.01;25.77;95641.97;5051381;28;20025;-69
2022/04/13 11:23:50;;;;;;;34.13;32.05;;;;;;;16.03;25.92;95639.84;5049296;28;20059;-68
2022/04/13 11:26:24;;;;;;;26.10;24.40;;;;;;;16.02;25.42;95638.19;5067778;28;20032;-68
2022/04/13 11:29:09;;;;;;;28.00;26.13;;;;;;;16.09;25.49;95639.03;5049028;28;20034;-68
2022/04/13 11:32:00;;;;;;;25.65;24.17;;;;;;;16.16;25.06;95639.88;5067866;28;20028;-68
2022/04/13 11:34:28;;;;;;;23.75;22.45;;;;;;;16.17;25.19;95640.69;5067505;28;20461;-69
2022/04/13 11:36:57;;;;;;;24.00;22.75;;;;;;;16.22;24.30;95631.97;5067023;28;20084;-69
2022/04/13 11:39:53;;;;;;;27.45;25.98;;;;;;;16.27;24.73;95629.47;5050142;28;20486;-69
2022/04/13 11:42:27;;;;;;;23.55;22.23;;;;;;;16.39;24.12;95635.94;5058236;28;20612;-69
2022/04/13 11:44:55;;;;;;;23.40;22.13;;;;;;;16.44;23.45;95638.00;5067132;28;20042;-68